createdAt,value
2022-10-15T00:00:15.248Z,996.21
2022-10-15T00:01:01.270Z,996.00
2022-10-15T00:01:47.213Z,996.00
2022-10-15T00:02:33.105Z,996.21
2022-10-15T00:03:19.157Z,995.90
2022-10-15T00:04:05.126Z,996.10
2022-10-15T00:04:51.123Z,996.10
2022-10-15T00:05:37.117Z,996.10
2022-10-15T00:06:23.201Z,996.10
2022-10-15T00:07:09.161Z,996.10
2022-10-15T00:07:55.138Z,996.10
2022-10-15T00:08:41.140Z,996.00
2022-10-15T00:09:27.175Z,996.00
2022-10-15T00:10:13.405Z,995.90
2022-10-15T00:10:59.198Z,995.90
2022-10-15T00:11:45.160Z,996.21
2022-10-15T00:12:31.147Z,995.90
2022-10-15T00:13:17.185Z,996.00
2022-10-15T00:14:03.165Z,996.31
2022-10-15T00:14:49.202Z,996.31
2022-10-15T00:15:35.287Z,996.21
2022-10-15T00:16:21.198Z,996.00
2022-10-15T00:17:07.189Z,996.31
2022-10-15T00:17:53.257Z,996.31
2022-10-15T00:18:39.241Z,996.21
2022-10-15T00:19:25.187Z,996.10
2022-10-15T00:20:11.204Z,996.00
2022-10-15T00:20:57.219Z,996.00
2022-10-15T00:21:43.198Z,996.41
2022-10-15T00:22:29.194Z,996.10
2022-10-15T00:23:15.226Z,996.31
2022-10-15T00:24:01.198Z,996.31
2022-10-15T00:24:47.255Z,996.31
2022-10-15T00:25:33.225Z,996.10
2022-10-15T00:26:19.324Z,996.10
2022-10-15T00:27:05.272Z,996.10
2022-10-15T00:27:51.292Z,996.10
2022-10-15T00:28:37.519Z,996.00
2022-10-15T00:29:23.216Z,995.90
2022-10-15T00:30:09.293Z,996.21
2022-10-15T00:30:55.286Z,996.21
2022-10-15T00:31:41.495Z,996.10
2022-10-15T00:32:27.417Z,995.90
2022-10-15T00:33:13.261Z,996.00
2022-10-15T00:33:59.292Z,996.00
2022-10-15T00:34:45.379Z,996.10
2022-10-15T00:35:31.260Z,996.00
2022-10-15T00:36:17.274Z,996.00
2022-10-15T00:37:03.269Z,996.10
2022-10-15T00:37:49.353Z,996.10
2022-10-15T00:38:35.328Z,996.10
2022-10-15T00:39:21.343Z,996.10
2022-10-15T00:40:07.412Z,996.00
2022-10-15T00:40:53.397Z,996.00
2022-10-15T00:41:39.375Z,996.00
2022-10-15T00:42:25.623Z,996.10
2022-10-15T00:43:11.300Z,995.90
2022-10-15T00:43:57.382Z,995.90
2022-10-15T00:44:43.373Z,996.00
2022-10-15T00:45:29.464Z,996.10
2022-10-15T00:46:15.312Z,996.00
2022-10-15T00:47:01.366Z,995.90
2022-10-15T00:47:47.313Z,995.90
2022-10-15T00:48:33.285Z,995.90
2022-10-15T00:49:19.391Z,996.00
2022-10-15T00:50:05.348Z,995.90
2022-10-15T00:50:51.374Z,995.90
2022-10-15T00:51:37.375Z,996.10
2022-10-15T00:52:23.600Z,996.10
2022-10-15T00:53:09.388Z,995.90
2022-10-15T00:53:55.419Z,995.90
2022-10-15T00:54:41.353Z,996.31
2022-10-15T00:55:27.498Z,996.21
2022-10-15T00:56:13.332Z,996.00
2022-10-15T00:56:59.340Z,996.00
2022-10-15T00:57:45.403Z,995.80
2022-10-15T00:58:31.354Z,996.10
2022-10-15T00:59:17.438Z,995.80
2022-10-15T01:00:03.508Z,995.90
2022-10-15T01:00:49.477Z,995.90
2022-10-15T01:01:35.469Z,996.10
2022-10-15T01:02:21.762Z,996.00
2022-10-15T01:03:07.440Z,995.90
2022-10-15T01:03:53.458Z,995.90
2022-10-15T01:04:39.472Z,996.00
2022-10-15T01:05:25.400Z,995.90
2022-10-15T01:06:11.553Z,996.00
2022-10-15T01:06:57.545Z,996.00
2022-10-15T01:07:43.388Z,995.90
2022-10-15T01:08:29.374Z,995.70
2022-10-15T01:09:15.417Z,995.90
2022-10-15T01:10:01.394Z,995.80
2022-10-15T01:10:47.427Z,995.80
2022-10-15T01:11:33.422Z,995.80
2022-10-15T01:12:19.565Z,996.00
2022-10-15T01:13:05.381Z,995.90
2022-10-15T01:13:51.378Z,995.90
2022-10-15T01:14:37.425Z,995.70
2022-10-15T01:15:23.510Z,995.70
2022-10-15T01:16:09.463Z,995.70
2022-10-15T01:16:55.698Z,995.70
2022-10-15T01:17:41.480Z,995.70
2022-10-15T01:18:27.555Z,995.70
2022-10-15T01:19:13.640Z,995.90
2022-10-15T01:19:59.489Z,995.90
2022-10-15T01:20:45.410Z,995.70
2022-10-15T01:21:31.448Z,995.80
2022-10-15T01:22:17.417Z,996.00
2022-10-15T01:23:03.493Z,995.80
2022-10-15T01:23:49.469Z,995.80
2022-10-15T01:24:35.441Z,995.80
2022-10-15T01:25:21.446Z,995.90
2022-10-15T01:26:07.443Z,995.90
2022-10-15T01:26:53.563Z,995.90
2022-10-15T01:27:39.480Z,996.10
2022-10-15T01:28:25.515Z,996.10
2022-10-15T01:29:11.493Z,995.80
2022-10-15T01:29:57.618Z,995.80
2022-10-15T01:30:43.549Z,996.21
2022-10-15T01:31:29.482Z,996.00
2022-10-15T01:32:15.485Z,995.90
2022-10-15T01:33:01.860Z,995.90
2022-10-15T01:33:47.466Z,995.90
2022-10-15T01:34:33.476Z,996.00
2022-10-15T01:35:19.543Z,996.10
2022-10-15T01:36:06.457Z,995.90
2022-10-15T01:36:51.480Z,995.90
2022-10-15T01:37:37.688Z,995.80
2022-10-15T01:38:23.550Z,995.90
2022-10-15T01:39:09.528Z,995.70
2022-10-15T01:39:55.536Z,995.70
2022-10-15T01:40:41.536Z,995.90
2022-10-15T01:41:27.526Z,996.00
2022-10-15T01:42:13.545Z,995.90
2022-10-15T01:42:59.495Z,995.90
2022-10-15T01:43:45.503Z,996.00
2022-10-15T01:44:31.484Z,995.90
2022-10-15T01:45:17.566Z,995.90
2022-10-15T01:46:03.495Z,995.90
2022-10-15T01:46:49.500Z,995.90
2022-10-15T01:47:35.581Z,996.00
2022-10-15T01:48:21.514Z,995.90
2022-10-15T01:49:07.488Z,995.90
2022-10-15T01:49:53.568Z,995.90
2022-10-15T01:50:39.533Z,995.90
2022-10-15T01:51:25.594Z,995.90
2022-10-15T01:52:11.613Z,995.90
2022-10-15T01:52:57.708Z,995.90
2022-10-15T01:53:43.715Z,995.70
2022-10-15T01:54:29.604Z,995.90
2022-10-15T01:55:15.636Z,995.90
2022-10-15T01:56:01.613Z,995.90
2022-10-15T01:56:47.734Z,995.90
2022-10-15T01:57:33.597Z,996.00
2022-10-15T01:58:19.832Z,995.90
2022-10-15T01:59:05.659Z,996.00
2022-10-15T01:59:51.599Z,996.00
2022-10-15T02:00:37.829Z,996.00
2022-10-15T02:01:23.740Z,995.80
2022-10-15T02:02:09.573Z,995.80
2022-10-15T02:02:55.551Z,995.80
2022-10-15T02:03:41.662Z,995.80
2022-10-15T02:04:27.590Z,995.80
2022-10-15T02:05:13.660Z,995.80
2022-10-15T02:05:59.613Z,995.80
2022-10-15T02:06:45.706Z,995.80
2022-10-15T02:07:31.640Z,995.80
2022-10-15T02:08:17.697Z,995.90
2022-10-15T02:09:03.592Z,995.70
2022-10-15T02:09:49.617Z,995.70
2022-10-15T02:10:35.696Z,995.70
2022-10-15T02:11:21.588Z,995.60
2022-10-15T02:12:07.657Z,995.70
2022-10-15T02:12:53.785Z,995.70
2022-10-15T02:13:39.634Z,995.80
2022-10-15T02:14:25.665Z,995.80
2022-10-15T02:15:11.692Z,995.60
2022-10-15T02:15:57.687Z,995.60
2022-10-15T02:16:43.641Z,995.60
2022-10-15T02:17:29.641Z,995.80
2022-10-15T02:18:15.694Z,995.70
2022-10-15T02:19:01.665Z,995.90
2022-10-15T02:19:47.690Z,995.90
2022-10-15T02:20:33.593Z,995.60
2022-10-15T02:21:19.755Z,995.60
2022-10-15T02:22:05.690Z,995.80
2022-10-15T02:22:51.658Z,995.80
2022-10-15T02:23:37.662Z,995.60
2022-10-15T02:24:23.774Z,995.70
2022-10-15T02:25:09.657Z,995.90
2022-10-15T02:25:55.667Z,995.90
2022-10-15T02:26:41.776Z,995.90
2022-10-15T02:27:27.723Z,995.70
2022-10-15T02:28:13.655Z,995.70
2022-10-15T02:28:59.869Z,995.70
2022-10-15T02:29:45.724Z,995.90
2022-10-15T02:30:31.842Z,995.60
2022-10-15T02:31:17.674Z,995.70
2022-10-15T02:32:03.662Z,995.90
2022-10-15T02:32:49.803Z,995.90
2022-10-15T02:33:35.681Z,995.70
2022-10-15T02:34:21.731Z,995.90
2022-10-15T02:35:07.676Z,995.80
2022-10-15T02:35:53.724Z,995.80
2022-10-15T02:36:39.770Z,995.60
2022-10-15T02:37:25.686Z,996.00
2022-10-15T02:38:11.755Z,995.80
2022-10-15T02:38:57.791Z,995.80
2022-10-15T02:39:43.704Z,995.80
2022-10-15T02:40:29.771Z,995.80
2022-10-15T02:41:15.737Z,995.90
2022-10-15T02:42:01.750Z,995.90
2022-10-15T02:42:47.774Z,995.90
2022-10-15T02:43:33.787Z,995.80
2022-10-15T02:44:19.827Z,995.90
2022-10-15T02:45:05.832Z,996.00
2022-10-15T02:45:51.719Z,996.00
2022-10-15T02:46:37.768Z,995.90
2022-10-15T02:48:09.752Z,995.80
2022-10-15T02:48:55.955Z,995.80
2022-10-15T02:49:41.765Z,995.80
2022-10-15T02:50:27.791Z,996.00
2022-10-15T02:51:13.928Z,996.00
2022-10-15T02:51:59.742Z,996.00
2022-10-15T02:52:45.808Z,995.80
2022-10-15T02:53:31.765Z,995.90
2022-10-15T02:54:17.821Z,996.00
2022-10-15T02:55:03.959Z,996.00
2022-10-15T02:55:49.829Z,996.00
2022-10-15T02:56:35.769Z,996.00
2022-10-15T02:57:22.081Z,996.00
2022-10-15T02:58:07.725Z,995.90
2022-10-15T02:58:53.765Z,995.90
2022-10-15T02:59:39.719Z,995.90
2022-10-15T03:00:25.849Z,995.90
2022-10-15T03:01:11.779Z,995.90
2022-10-15T03:01:57.785Z,995.90
2022-10-15T03:02:43.738Z,996.10
2022-10-15T03:03:29.756Z,995.80
2022-10-15T03:04:15.763Z,996.00
2022-10-15T03:05:01.879Z,995.90
2022-10-15T03:05:47.749Z,995.90
2022-10-15T03:06:33.805Z,995.90
2022-10-15T03:07:19.835Z,995.70
2022-10-15T03:08:05.774Z,996.00
2022-10-15T03:08:51.859Z,996.00
2022-10-15T03:09:37.809Z,995.80
2022-10-15T03:10:23.829Z,996.00
2022-10-15T03:11:09.831Z,996.10
2022-10-15T03:11:56.010Z,996.10
2022-10-15T03:12:41.858Z,995.80
2022-10-15T03:13:27.806Z,995.70
2022-10-15T03:14:13.826Z,995.90
2022-10-15T03:14:59.790Z,995.90
2022-10-15T03:15:45.858Z,996.00
2022-10-15T03:16:31.784Z,996.00
2022-10-15T03:17:17.790Z,996.10
2022-10-15T03:18:03.832Z,996.00
2022-10-15T03:18:49.868Z,996.00
2022-10-15T03:19:35.779Z,996.10
2022-10-15T03:20:21.815Z,995.90
2022-10-15T03:21:07.777Z,996.00
2022-10-15T03:21:54.409Z,996.00
2022-10-15T03:22:39.801Z,996.00
2022-10-15T03:23:25.879Z,995.70
2022-10-15T03:24:12.583Z,996.00
2022-10-15T03:24:57.850Z,996.00
2022-10-15T03:25:43.850Z,995.80
2022-10-15T03:26:29.820Z,995.90
2022-10-15T03:27:15.855Z,996.10
2022-10-15T03:28:01.837Z,996.00
2022-10-15T03:28:47.925Z,996.00
2022-10-15T03:29:33.832Z,996.31
2022-10-15T03:30:19.986Z,996.10
2022-10-15T03:31:05.834Z,996.10
2022-10-15T03:31:51.816Z,996.10
2022-10-15T03:32:37.971Z,995.90
2022-10-15T03:33:25.181Z,996.10
2022-10-15T03:34:09.866Z,995.90
2022-10-15T03:34:55.848Z,995.90
2022-10-15T03:35:41.992Z,996.00
2022-10-15T03:36:27.982Z,996.10
2022-10-15T03:37:13.902Z,995.90
2022-10-15T03:37:59.849Z,995.90
2022-10-15T03:38:45.889Z,996.00
2022-10-15T03:39:31.856Z,996.21
2022-10-15T03:40:17.913Z,996.31
2022-10-15T03:41:03.853Z,996.10
2022-10-15T03:41:49.927Z,996.10
2022-10-15T03:42:35.882Z,996.21
2022-10-15T03:43:21.859Z,996.10
2022-10-15T03:44:07.924Z,996.00
2022-10-15T03:44:54.672Z,996.00
2022-10-15T03:45:39.963Z,996.31
2022-10-15T03:46:25.902Z,996.21
2022-10-15T03:47:11.898Z,996.10
2022-10-15T03:47:57.953Z,996.10
2022-10-15T03:48:43.920Z,996.10
2022-10-15T03:49:29.891Z,996.31
2022-10-15T03:50:15.926Z,996.41
2022-10-15T03:51:01.961Z,996.31
2022-10-15T03:51:47.905Z,996.31
2022-10-15T03:52:33.912Z,996.31
2022-10-15T03:53:20.014Z,996.21
2022-10-15T03:54:05.919Z,996.10
2022-10-15T03:54:51.897Z,996.10
2022-10-15T03:55:37.977Z,996.31
2022-10-15T03:56:24.020Z,996.10
2022-10-15T03:57:09.952Z,996.21
2022-10-15T03:57:56.052Z,996.21
2022-10-15T03:58:41.958Z,996.31
2022-10-15T03:59:27.980Z,996.21
2022-10-15T04:00:14.065Z,996.21
2022-10-15T04:01:00.021Z,996.21
2022-10-15T04:01:45.946Z,996.10
2022-10-15T04:02:31.960Z,996.10
2022-10-15T04:03:17.945Z,996.10
2022-10-15T04:04:03.951Z,996.10
2022-10-15T04:04:50.011Z,996.10
2022-10-15T04:05:35.970Z,996.31
2022-10-15T04:06:21.956Z,996.10
2022-10-15T04:07:07.981Z,996.31
2022-10-15T04:07:54.741Z,996.31
2022-10-15T04:08:39.996Z,996.31
2022-10-15T04:09:25.971Z,996.00
2022-10-15T04:10:12.000Z,996.31
2022-10-15T04:10:58.041Z,996.31
2022-10-15T04:11:44.011Z,996.00
2022-10-15T04:12:30.025Z,996.10
2022-10-15T04:13:15.982Z,996.41
2022-10-15T04:14:02.044Z,996.31
2022-10-15T04:14:48.041Z,996.31
2022-10-15T04:15:34.475Z,996.21
2022-10-15T04:16:20.056Z,996.21
2022-10-15T04:17:06.010Z,996.21
2022-10-15T04:18:38.042Z,996.61
2022-10-15T04:19:24.040Z,996.21
2022-10-15T04:20:09.983Z,996.21
2022-10-15T04:20:55.980Z,996.21
2022-10-15T04:21:42.018Z,996.41
2022-10-15T04:22:28.052Z,996.31
2022-10-15T04:23:14.073Z,996.21
2022-10-15T04:24:00.019Z,996.21
2022-10-15T04:24:46.069Z,996.10
2022-10-15T04:25:32.036Z,996.51
2022-10-15T04:26:18.034Z,996.31
2022-10-15T04:27:04.129Z,996.21
2022-10-15T04:27:50.050Z,996.21
2022-10-15T04:28:36.141Z,996.31
2022-10-15T04:29:22.047Z,996.41
2022-10-15T04:30:08.155Z,996.41
2022-10-15T04:30:54.751Z,996.41
2022-10-15T04:31:40.029Z,996.51
2022-10-15T04:32:26.350Z,996.51
2022-10-15T04:33:12.063Z,996.41
2022-10-15T04:33:58.115Z,996.41
2022-10-15T04:34:44.088Z,996.51
2022-10-15T04:35:30.041Z,996.41
2022-10-15T04:37:02.094Z,996.61
2022-10-15T04:37:48.047Z,996.61
2022-10-15T04:38:34.120Z,996.51
2022-10-15T04:39:20.141Z,996.41
2022-10-15T04:40:06.063Z,996.41
2022-10-15T04:40:52.074Z,996.41
2022-10-15T04:41:38.086Z,996.51
2022-10-15T04:42:24.095Z,996.51
2022-10-15T04:43:10.067Z,996.41
2022-10-15T04:43:56.110Z,996.41
2022-10-15T04:44:42.101Z,996.71
2022-10-15T04:45:28.228Z,996.41
2022-10-15T04:46:14.107Z,996.51
2022-10-15T04:47:00.095Z,996.51
2022-10-15T04:47:46.109Z,996.51
2022-10-15T04:48:32.255Z,996.51
2022-10-15T04:49:18.168Z,996.51
2022-10-15T04:50:04.159Z,996.41
2022-10-15T04:50:50.154Z,996.41
2022-10-15T04:51:36.166Z,996.51
2022-10-15T04:52:22.192Z,996.31
2022-10-15T04:53:08.131Z,996.61
2022-10-15T04:53:54.795Z,996.61
2022-10-15T04:54:40.113Z,996.61
2022-10-15T04:55:26.231Z,996.41
2022-10-15T04:56:12.129Z,996.51
2022-10-15T04:56:58.209Z,996.51
2022-10-15T04:57:44.146Z,996.61
2022-10-15T04:58:30.158Z,996.61
2022-10-15T04:59:16.160Z,996.82
2022-10-15T05:00:02.357Z,996.71
2022-10-15T05:00:48.155Z,996.71
2022-10-15T05:01:34.139Z,996.31
2022-10-15T05:02:20.288Z,996.71
2022-10-15T05:03:06.217Z,996.61
2022-10-15T05:03:52.147Z,996.61
2022-10-15T05:04:38.159Z,996.61
2022-10-15T05:05:24.192Z,996.51
2022-10-15T05:06:10.199Z,996.82
2022-10-15T05:06:56.221Z,996.82
2022-10-15T05:07:42.218Z,996.51
2022-10-15T05:08:28.239Z,996.71
2022-10-15T05:09:14.216Z,996.61
2022-10-15T05:10:00.207Z,996.61
2022-10-15T05:10:46.169Z,996.61
2022-10-15T05:11:32.183Z,996.71
2022-10-15T05:12:18.186Z,996.82
2022-10-15T05:13:04.200Z,996.71
2022-10-15T05:13:50.193Z,996.71
2022-10-15T05:14:36.234Z,996.61
2022-10-15T05:15:22.223Z,996.61
2022-10-15T05:16:08.250Z,996.61
2022-10-15T05:16:54.999Z,996.61
2022-10-15T05:17:40.227Z,996.82
2022-10-15T05:18:26.303Z,996.71
2022-10-15T05:19:12.203Z,996.71
2022-10-15T05:19:58.374Z,996.71
2022-10-15T05:20:44.202Z,996.71
2022-10-15T05:21:30.233Z,996.51
2022-10-15T05:22:16.239Z,996.99
2022-10-15T05:23:02.312Z,996.61
2022-10-15T05:23:48.223Z,996.61
2022-10-15T05:24:34.349Z,996.88
2022-10-15T05:25:20.270Z,996.82
2022-10-15T05:26:06.291Z,996.71
2022-10-15T05:26:52.256Z,996.71
2022-10-15T05:27:38.248Z,996.71
2022-10-15T05:28:24.382Z,996.71
2022-10-15T05:29:10.244Z,996.99
2022-10-15T05:29:56.372Z,996.99
2022-10-15T05:30:42.319Z,996.88
2022-10-15T05:31:28.303Z,996.82
2022-10-15T05:32:14.363Z,996.82
2022-10-15T05:33:00.285Z,996.82
2022-10-15T05:33:46.273Z,996.88
2022-10-15T05:34:32.447Z,997.09
2022-10-15T05:35:18.327Z,996.82
2022-10-15T05:36:04.360Z,996.99
2022-10-15T05:36:50.379Z,996.99
2022-10-15T05:37:36.313Z,996.88
2022-10-15T05:38:22.338Z,996.88
2022-10-15T05:39:08.323Z,996.88
2022-10-15T05:39:55.008Z,996.88
2022-10-15T05:40:40.283Z,997.19
2022-10-15T05:41:26.302Z,996.88
2022-10-15T05:42:12.337Z,996.99
2022-10-15T05:42:58.408Z,996.99
2022-10-15T05:43:44.313Z,996.88
2022-10-15T05:44:30.320Z,997.09
2022-10-15T05:45:16.408Z,997.09
2022-10-15T05:46:02.330Z,996.99
2022-10-15T05:46:48.351Z,996.99
2022-10-15T05:47:34.365Z,997.09
2022-10-15T05:48:20.369Z,997.29
2022-10-15T05:49:06.322Z,997.19
2022-10-15T05:49:52.326Z,997.19
2022-10-15T05:50:38.350Z,997.19
2022-10-15T05:51:24.379Z,997.19
2022-10-15T05:52:10.325Z,997.39
2022-10-15T05:52:56.426Z,997.39
2022-10-15T05:53:42.353Z,997.19
2022-10-15T05:54:28.377Z,997.39
2022-10-15T05:55:14.343Z,997.29
2022-10-15T05:56:00.342Z,997.29
2022-10-15T05:56:46.371Z,997.19
2022-10-15T05:57:32.354Z,997.19
2022-10-15T05:58:18.422Z,997.29
2022-10-15T05:59:04.372Z,997.39
2022-10-15T05:59:50.407Z,997.39
2022-10-15T06:00:36.442Z,997.29
2022-10-15T06:01:22.389Z,997.29
2022-10-15T06:02:08.485Z,997.19
2022-10-15T06:02:54.983Z,997.19
2022-10-15T06:03:40.381Z,997.29
2022-10-15T06:04:26.898Z,997.29
2022-10-15T06:05:12.514Z,997.19
2022-10-15T06:05:58.488Z,997.19
2022-10-15T06:06:44.506Z,997.39
2022-10-15T06:07:30.415Z,997.49
2022-10-15T06:08:16.485Z,997.29
2022-10-15T06:09:02.440Z,997.49
2022-10-15T06:09:48.382Z,997.49
2022-10-15T06:10:34.579Z,997.29
2022-10-15T06:11:20.435Z,997.49
2022-10-15T06:12:06.477Z,997.39
2022-10-15T06:12:52.396Z,997.39
2022-10-15T06:13:38.417Z,997.39
2022-10-15T06:14:24.468Z,997.70
2022-10-15T06:15:10.458Z,997.19
2022-10-15T06:15:56.493Z,997.19
2022-10-15T06:16:42.392Z,997.19
2022-10-15T06:17:28.483Z,997.39
2022-10-15T06:18:14.418Z,997.29
2022-10-15T06:19:00.389Z,997.29
2022-10-15T06:19:46.507Z,997.49
2022-10-15T06:20:32.491Z,997.29
2022-10-15T06:21:18.510Z,997.49
2022-10-15T06:22:04.514Z,997.19
2022-10-15T06:22:50.511Z,997.19
2022-10-15T06:23:36.523Z,997.49
2022-10-15T06:24:22.467Z,997.29
2022-10-15T06:25:08.525Z,997.39
2022-10-15T06:25:55.198Z,997.39
2022-10-15T06:26:40.478Z,997.39
2022-10-15T06:27:26.703Z,997.29
2022-10-15T06:28:12.511Z,997.59
2022-10-15T06:28:58.592Z,997.59
2022-10-15T06:29:44.557Z,997.49
2022-10-15T06:30:30.567Z,997.49
2022-10-15T06:31:16.566Z,997.59
2022-10-15T06:32:02.523Z,997.70
2022-10-15T06:32:48.584Z,997.70
2022-10-15T06:33:34.554Z,997.59
2022-10-15T06:34:20.564Z,997.59
2022-10-15T06:35:06.511Z,997.59
2022-10-15T06:35:52.574Z,997.59
2022-10-15T06:36:38.584Z,997.90
2022-10-15T06:37:24.903Z,997.70
2022-10-15T06:38:10.532Z,997.80
2022-10-15T06:38:56.590Z,997.80
2022-10-15T06:39:42.593Z,997.59
2022-10-15T06:40:28.604Z,997.80
2022-10-15T06:41:14.538Z,997.49
2022-10-15T06:42:00.564Z,997.49
2022-10-15T06:42:46.554Z,997.70
2022-10-15T06:43:34.862Z,997.59
2022-10-15T06:44:18.894Z,997.49
2022-10-15T06:45:04.717Z,997.70
2022-10-15T06:45:50.574Z,997.70
2022-10-15T06:46:36.555Z,997.59
2022-10-15T06:47:22.892Z,997.70
2022-10-15T06:48:08.591Z,997.70
2022-10-15T06:48:55.289Z,997.70
2022-10-15T06:49:40.580Z,997.80
2022-10-15T06:50:26.751Z,997.70
2022-10-15T06:51:12.673Z,997.80
2022-10-15T06:52:02.619Z,997.80
2022-10-15T06:52:44.642Z,997.80
2022-10-15T06:53:30.616Z,997.80
2022-10-15T06:54:16.605Z,997.90
2022-10-15T06:55:02.692Z,997.90
2022-10-15T06:55:48.571Z,997.90
2022-10-15T06:56:34.693Z,997.90
2022-10-15T06:57:21.049Z,997.90
2022-10-15T06:58:06.593Z,997.90
2022-10-15T06:58:52.613Z,997.90
2022-10-15T06:59:41.293Z,997.80
2022-10-15T07:00:24.728Z,997.80
2022-10-15T07:01:10.673Z,997.80
2022-10-15T07:01:56.725Z,997.80
2022-10-15T07:02:42.681Z,997.90
2022-10-15T07:03:28.822Z,998.00
2022-10-15T07:04:14.657Z,998.00
2022-10-15T07:05:00.675Z,998.00
2022-10-15T07:05:46.678Z,997.80
2022-10-15T07:06:32.714Z,997.80
2022-10-15T07:07:18.630Z,997.90
2022-10-15T07:08:04.624Z,997.70
2022-10-15T07:08:50.690Z,997.70
2022-10-15T07:09:36.675Z,997.80
2022-10-15T07:10:22.625Z,998.00
2022-10-15T07:11:08.670Z,998.10
2022-10-15T07:11:55.410Z,998.10
2022-10-15T07:12:40.676Z,998.00
2022-10-15T07:13:26.692Z,997.80
2022-10-15T07:14:12.721Z,997.80
2022-10-15T07:14:58.728Z,997.80
2022-10-15T07:15:44.819Z,998.10
2022-10-15T07:16:30.663Z,998.10
2022-10-15T07:17:16.797Z,997.90
2022-10-15T07:18:02.668Z,997.90
2022-10-15T07:18:48.655Z,997.90
2022-10-15T07:19:34.669Z,998.10
2022-10-15T07:20:23.536Z,998.10
2022-10-15T07:21:06.777Z,997.80
2022-10-15T07:21:52.667Z,997.80
2022-10-15T07:22:38.729Z,997.90
2022-10-15T07:23:27.098Z,997.90
2022-10-15T07:24:10.714Z,998.10
2022-10-15T07:24:56.732Z,998.10
2022-10-15T07:25:42.708Z,998.10
2022-10-15T07:26:28.784Z,998.20
2022-10-15T07:27:19.130Z,997.90
2022-10-15T07:28:00.715Z,997.90
2022-10-15T07:28:46.786Z,998.00
2022-10-15T07:29:32.772Z,998.10
2022-10-15T07:30:18.956Z,998.00
2022-10-15T07:31:04.714Z,998.10
2022-10-15T07:31:50.800Z,998.10
2022-10-15T07:32:36.786Z,998.10
2022-10-15T07:33:22.727Z,998.10
2022-10-15T07:34:08.781Z,998.00
2022-10-15T07:34:55.179Z,998.00
2022-10-15T07:35:40.830Z,998.00
2022-10-15T07:36:26.852Z,998.10
2022-10-15T07:37:12.867Z,998.00
2022-10-15T07:37:58.903Z,998.00
2022-10-15T07:38:44.841Z,997.90
2022-10-15T07:39:30.749Z,998.10
2022-10-15T07:40:16.896Z,998.10
2022-10-15T07:41:02.768Z,998.20
2022-10-15T07:41:48.797Z,998.20
2022-10-15T07:42:34.797Z,998.10
2022-10-15T07:43:20.789Z,998.20
2022-10-15T07:44:06.818Z,998.20
2022-10-15T07:44:52.787Z,998.20
2022-10-15T07:45:38.820Z,998.20
2022-10-15T07:46:24.887Z,998.10
2022-10-15T07:47:10.850Z,998.31
2022-10-15T07:47:56.883Z,998.31
2022-10-15T07:48:42.846Z,998.20
2022-10-15T07:49:29.126Z,998.41
2022-10-15T07:50:14.829Z,998.10
2022-10-15T07:51:00.820Z,998.10
2022-10-15T07:51:46.816Z,998.20
2022-10-15T07:52:32.791Z,998.31
2022-10-15T07:53:20.611Z,998.20
2022-10-15T07:54:04.834Z,998.41
2022-10-15T07:54:50.893Z,998.41
2022-10-15T07:55:36.822Z,998.41
2022-10-15T07:56:22.809Z,998.41
2022-10-15T07:57:08.880Z,998.20
2022-10-15T07:57:55.840Z,998.20
2022-10-15T07:58:40.818Z,998.10
2022-10-15T07:59:26.868Z,998.41
2022-10-15T08:00:12.968Z,998.41
2022-10-15T08:00:59.888Z,998.41
2022-10-15T08:01:47.084Z,998.31
2022-10-15T08:02:30.823Z,998.10
2022-10-15T08:03:16.836Z,998.41
2022-10-15T08:04:02.838Z,998.31
2022-10-15T08:04:48.951Z,998.31
2022-10-15T08:05:34.877Z,998.61
2022-10-15T08:06:20.870Z,998.61
2022-10-15T08:07:09.513Z,998.51
2022-10-15T08:07:52.891Z,998.51
2022-10-15T08:08:38.908Z,998.51
2022-10-15T08:09:24.932Z,998.41
2022-10-15T08:10:10.875Z,998.41
2022-10-15T08:10:56.940Z,998.41
2022-10-15T08:11:42.939Z,998.41
2022-10-15T08:12:29.034Z,998.51
2022-10-15T08:13:14.899Z,998.41
2022-10-15T08:14:00.886Z,998.41
2022-10-15T08:14:46.909Z,998.61
2022-10-15T08:15:32.950Z,998.31
2022-10-15T08:16:18.927Z,998.41
2022-10-15T08:17:04.986Z,998.51
2022-10-15T08:17:50.927Z,998.51
2022-10-15T08:18:36.941Z,998.41
2022-10-15T08:19:22.884Z,998.31
2022-10-15T08:20:08.941Z,998.51
2022-10-15T08:20:55.395Z,998.51
2022-10-15T08:21:43.929Z,998.31
2022-10-15T08:22:27.049Z,998.51
2022-10-15T08:23:12.905Z,998.31
2022-10-15T08:23:59.106Z,998.31
2022-10-15T08:24:44.968Z,998.61
2022-10-15T08:25:30.916Z,998.51
2022-10-15T08:26:16.932Z,998.41
2022-10-15T08:27:02.943Z,998.61
2022-10-15T08:27:48.988Z,998.61
2022-10-15T08:28:35.006Z,998.41
2022-10-15T08:29:21.035Z,998.41
2022-10-15T08:30:07.019Z,998.20
2022-10-15T08:30:52.951Z,998.20
2022-10-15T08:31:38.955Z,998.61
2022-10-15T08:32:25.481Z,998.51
2022-10-15T08:33:11.100Z,998.41
2022-10-15T08:33:57.005Z,998.41
2022-10-15T08:34:42.967Z,998.51
2022-10-15T08:35:29.193Z,998.51
2022-10-15T08:36:14.991Z,998.61
2022-10-15T08:37:01.119Z,998.61
2022-10-15T08:37:46.967Z,998.81
2022-10-15T08:38:33.006Z,998.61
2022-10-15T08:39:18.951Z,998.61
2022-10-15T08:40:05.083Z,998.51
2022-10-15T08:40:50.984Z,998.51
2022-10-15T08:41:36.973Z,998.61
2022-10-15T08:42:23.357Z,998.51
2022-10-15T08:43:09.001Z,998.41
2022-10-15T08:43:55.425Z,998.41
2022-10-15T08:44:41.034Z,998.61
2022-10-15T08:45:27.128Z,998.31
2022-10-15T08:46:13.074Z,998.41
2022-10-15T08:46:59.285Z,998.41
2022-10-15T08:47:45.183Z,998.41
2022-10-15T08:48:31.247Z,998.51
2022-10-15T08:49:17.209Z,998.20
2022-10-15T08:50:03.268Z,998.51
2022-10-15T08:50:50.447Z,998.51
2022-10-15T08:51:35.221Z,998.51
2022-10-15T08:52:21.219Z,998.51
2022-10-15T08:53:07.250Z,998.61
2022-10-15T08:53:53.230Z,998.61
2022-10-15T08:54:39.231Z,998.71
2022-10-15T08:56:11.159Z,998.41
2022-10-15T08:56:57.145Z,998.41
2022-10-15T08:57:43.216Z,998.51
2022-10-15T08:58:29.453Z,998.61
2022-10-15T08:59:15.225Z,998.61
2022-10-15T09:00:01.854Z,998.61
2022-10-15T09:00:47.194Z,998.31
2022-10-15T09:01:33.241Z,998.51
2022-10-15T09:02:19.180Z,998.71
2022-10-15T09:03:05.458Z,998.51
2022-10-15T09:03:51.181Z,998.51
2022-10-15T09:04:37.155Z,998.51
2022-10-15T09:05:23.208Z,998.41
2022-10-15T09:06:09.185Z,998.61
2022-10-15T09:06:55.571Z,998.61
2022-10-15T09:07:41.175Z,998.61
2022-10-15T09:08:27.255Z,998.51
2022-10-15T09:09:13.252Z,998.51
2022-10-15T09:09:59.304Z,998.51
2022-10-15T09:10:45.107Z,998.51
2022-10-15T09:11:31.250Z,998.41
2022-10-15T09:12:17.128Z,998.51
2022-10-15T09:13:03.096Z,998.41
2022-10-15T09:13:49.220Z,998.41
2022-10-15T09:14:35.217Z,998.61
2022-10-15T09:15:23.980Z,998.51
2022-10-15T09:16:07.150Z,998.81
2022-10-15T09:16:53.146Z,998.81
2022-10-15T09:17:39.184Z,998.61
2022-10-15T09:18:25.224Z,998.81
2022-10-15T09:19:11.201Z,998.71
2022-10-15T09:19:57.169Z,998.71
2022-10-15T09:20:43.113Z,998.51
2022-10-15T09:21:29.358Z,998.51
2022-10-15T09:22:15.161Z,998.61
2022-10-15T09:23:01.161Z,998.61
2022-10-15T09:23:47.161Z,998.51
2022-10-15T09:24:33.204Z,998.71
2022-10-15T09:25:19.178Z,998.71
2022-10-15T09:26:05.219Z,998.81
2022-10-15T09:26:51.156Z,998.81
2022-10-15T09:27:37.202Z,998.71
2022-10-15T09:28:23.253Z,998.92
2022-10-15T09:29:09.267Z,998.61
2022-10-15T09:29:55.431Z,998.61
2022-10-15T09:30:41.264Z,998.71
2022-10-15T09:31:27.205Z,998.61
2022-10-15T09:32:13.152Z,998.51
2022-10-15T09:32:59.456Z,998.51
2022-10-15T09:33:45.209Z,998.71
2022-10-15T09:34:31.266Z,998.61
2022-10-15T09:35:17.228Z,998.61
2022-10-15T09:36:03.356Z,998.41
2022-10-15T09:36:49.237Z,998.41